createdAt,value
2022-11-10T00:01:22.622Z,100238.38
2022-11-10T00:06:24.032Z,100247.00
2022-11-10T00:11:25.678Z,100244.28
2022-11-10T00:16:45.810Z,100242.56
2022-11-10T00:21:47.250Z,100249.19
2022-11-10T00:26:49.504Z,100252.91
2022-11-10T00:31:51.220Z,100260.25
2022-11-10T00:36:52.677Z,100259.66
2022-11-10T00:41:54.439Z,100262.47
2022-11-10T00:46:55.890Z,100266.91
2022-11-10T00:51:57.334Z,100270.09
2022-11-10T00:56:58.825Z,100276.84
2022-11-10T01:02:00.304Z,100277.19
2022-11-10T01:07:01.826Z,100279.28
2022-11-10T01:12:03.554Z,100284.59
2022-11-10T01:17:05.067Z,100287.53
2022-11-10T01:22:06.466Z,100296.25
2022-11-10T01:27:07.863Z,100282.59
2022-11-10T01:32:09.303Z,100293.88
2022-11-10T01:37:12.111Z,100281.84
2022-11-10T01:42:13.860Z,100295.25
2022-11-10T01:47:15.294Z,100293.66
2022-11-10T01:52:16.703Z,100298.94
2022-11-10T01:57:18.431Z,100300.78
2022-11-10T02:02:47.711Z,100307.06
2022-11-10T02:07:51.680Z,100302.75
2022-11-10T02:12:53.123Z,100304.97
2022-11-10T02:17:54.555Z,100299.81
2022-11-10T02:22:56.041Z,100313.22
2022-11-10T02:27:57.574Z,100314.53
2022-11-10T02:32:59.050Z,100317.63
2022-11-10T02:38:00.548Z,100322.53
2022-11-10T02:43:06.460Z,100312.59
2022-11-10T02:48:09.026Z,100333.72
2022-11-10T02:53:10.472Z,100333.84
2022-11-10T02:58:12.119Z,100336.16
2022-11-10T03:03:13.532Z,100347.22
2022-11-10T03:08:14.961Z,100349.19
2022-11-10T03:13:16.370Z,100364.59
2022-11-10T03:18:18.116Z,100364.84
2022-11-10T03:23:20.006Z,100372.22
2022-11-10T03:28:21.740Z,100385.38
2022-11-10T03:33:23.606Z,100387.44
2022-11-10T03:38:25.155Z,100399.47
2022-11-10T03:43:26.572Z,100394.06
2022-11-10T03:48:28.003Z,100395.53
2022-11-10T03:53:29.452Z,100407.22
2022-11-10T03:58:31.260Z,100402.44
2022-11-10T04:03:32.908Z,100406.75
2022-11-10T04:08:53.034Z,100403.41
2022-11-10T04:14:12.868Z,100407.81
2022-11-10T04:19:14.667Z,100406.97
2022-11-10T04:24:16.366Z,100409.81
2022-11-10T04:29:19.796Z,100399.00
2022-11-10T04:34:21.255Z,100424.41
2022-11-10T04:39:22.696Z,100429.91
2022-11-10T04:44:24.372Z,100435.53
2022-11-10T04:49:25.847Z,100441.84
2022-11-10T04:54:27.378Z,100455.19
2022-11-10T04:59:28.798Z,100459.91
2022-11-10T05:04:30.201Z,100464.78
2022-11-10T05:09:31.634Z,100456.69
2022-11-10T05:14:33.050Z,100465.53
2022-11-10T05:19:34.463Z,100474.88
2022-11-10T05:24:35.877Z,100477.66
2022-11-10T05:29:37.287Z,100483.59
2022-11-10T05:34:38.752Z,100489.16
2022-11-10T05:39:40.397Z,100503.53
2022-11-10T05:44:41.805Z,100511.84
2022-11-10T05:49:43.225Z,100515.31
2022-11-10T05:54:44.635Z,100527.34
2022-11-10T05:59:46.077Z,100538.22
2022-11-10T06:04:47.486Z,100548.09
2022-11-10T06:09:48.899Z,100558.75
2022-11-10T06:14:51.071Z,100566.41
2022-11-10T06:19:52.509Z,100574.09
2022-11-10T06:24:53.926Z,100599.63
2022-11-10T06:29:55.411Z,100597.66
2022-11-10T06:35:00.523Z,100614.28
2022-11-10T06:40:02.301Z,100629.31
2022-11-10T06:45:04.202Z,100624.66
2022-11-10T06:50:06.015Z,100640.84
2022-11-10T06:55:07.935Z,100646.25
2022-11-10T07:00:10.286Z,100654.25
2022-11-10T07:05:12.259Z,100667.53
2022-11-10T07:10:14.831Z,100677.28
2022-11-10T07:15:16.232Z,100681.47
2022-11-10T07:20:17.735Z,100694.84
2022-11-10T07:25:19.179Z,100699.72
2022-11-10T07:30:20.657Z,100709.75
2022-11-10T07:35:22.130Z,100724.78
2022-11-10T07:40:24.073Z,100728.13
2022-11-10T07:45:26.144Z,100728.34
2022-11-10T07:50:28.364Z,100738.50
2022-11-10T07:55:29.827Z,100756.03
2022-11-10T08:00:31.839Z,100760.09
2022-11-10T08:05:34.261Z,100760.97
2022-11-10T08:10:36.497Z,100769.63
2022-11-10T08:15:38.914Z,100774.38
2022-11-10T08:20:40.328Z,100780.56
2022-11-10T08:25:42.285Z,100782.06
2022-11-10T08:30:46.322Z,100789.06
2022-11-10T08:35:50.004Z,100807.00
2022-11-10T08:40:51.499Z,100810.88
2022-11-10T08:45:56.938Z,100814.13
2022-11-10T08:51:00.135Z,100821.88
2022-11-10T08:56:01.543Z,100830.00
2022-11-10T09:01:07.314Z,100845.44
2022-11-10T09:06:08.756Z,100849.22
2022-11-10T09:11:10.210Z,100854.38
2022-11-10T09:16:11.660Z,100854.88
2022-11-10T09:21:13.159Z,100861.16
2022-11-10T09:26:14.630Z,100865.63
2022-11-10T09:31:16.093Z,100878.19
2022-11-10T09:36:17.742Z,100885.63
2022-11-10T09:41:19.236Z,100890.56
2022-11-10T09:46:37.853Z,100895.00
2022-11-10T09:51:47.939Z,100895.97
2022-11-10T09:56:53.498Z,100895.59
2022-11-10T10:02:12.739Z,100896.94
2022-11-10T10:07:30.764Z,100910.28
2022-11-10T10:13:06.314Z,100916.16
2022-11-10T10:18:07.684Z,100913.41
2022-11-10T10:23:40.702Z,100918.34
2022-11-10T10:28:47.400Z,100922.53
2022-11-10T10:33:49.277Z,100934.06
2022-11-10T10:38:54.262Z,100931.88
2022-11-10T10:43:58.915Z,100928.66
2022-11-10T10:49:31.060Z,100931.38
2022-11-10T10:54:35.755Z,100919.38
2022-11-10T10:59:37.232Z,100919.03
2022-11-10T11:04:38.641Z,100935.91
2022-11-10T11:09:43.425Z,100930.88
2022-11-10T11:14:46.324Z,100942.75
2022-11-10T11:19:57.099Z,100945.03
2022-11-10T11:25:15.959Z,100949.38
2022-11-10T11:30:20.343Z,100945.81
2022-11-10T11:35:34.136Z,100950.53
2022-11-10T11:41:06.446Z,100945.31
2022-11-10T11:46:10.737Z,100951.88
2022-11-10T11:51:31.561Z,100944.59
2022-11-10T11:56:39.276Z,100959.38
2022-11-10T12:02:04.814Z,100959.78
2022-11-10T12:07:23.591Z,100958.16
2022-11-10T12:12:40.223Z,100960.38
2022-11-10T12:18:19.007Z,100974.47
2022-11-10T12:23:29.479Z,100960.25
2022-11-10T12:28:44.291Z,100971.25
2022-11-10T12:33:50.387Z,100990.00
2022-11-10T12:39:12.324Z,100999.88
2022-11-10T12:44:36.449Z,100988.00
2022-11-10T12:49:41.598Z,100992.72
2022-11-10T12:54:45.638Z,101011.09
2022-11-10T13:00:06.881Z,101011.09
2022-11-10T13:05:14.339Z,101022.03
2022-11-10T13:10:18.510Z,101015.81
2022-11-10T13:15:37.945Z,101028.34
2022-11-10T13:20:39.336Z,101028.72
2022-11-10T13:26:00.167Z,101030.91
2022-11-10T13:31:27.568Z,101042.34
2022-11-10T13:36:43.763Z,101040.31
2022-11-10T13:42:01.124Z,101050.38
2022-11-10T13:47:08.316Z,101068.16
2022-11-10T13:52:37.744Z,101067.00
2022-11-10T13:57:41.543Z,101068.50
2022-11-10T14:02:50.463Z,101071.69
2022-11-10T14:07:54.435Z,101089.09
2022-11-10T14:13:05.676Z,101082.91
2022-11-10T14:18:25.671Z,101085.16
2022-11-10T14:23:47.446Z,101103.22
2022-11-10T14:28:48.865Z,101114.53
2022-11-10T14:33:56.051Z,101117.09
2022-11-10T14:38:58.205Z,101116.75
2022-11-10T14:44:05.369Z,101136.31
2022-11-10T14:49:10.765Z,101141.31
2022-11-10T14:54:16.983Z,101140.63
2022-11-10T14:59:20.196Z,101150.75
2022-11-10T15:04:31.805Z,101153.44
2022-11-10T15:09:33.517Z,101169.28
2022-11-10T15:14:39.406Z,101185.34
2022-11-10T15:19:46.712Z,101187.31
2022-11-10T15:24:51.568Z,101187.94
2022-11-10T15:29:54.210Z,101193.34
2022-11-10T15:35:27.490Z,101187.16
2022-11-10T15:40:31.833Z,101214.78
2022-11-10T15:45:33.324Z,101206.31
2022-11-10T15:50:34.817Z,101232.09
2022-11-10T15:55:36.272Z,101231.06
2022-11-10T16:00:38.049Z,101244.81
2022-11-10T16:05:41.073Z,101246.28
2022-11-10T16:10:45.899Z,101255.50
2022-11-10T16:15:47.858Z,101275.03
2022-11-10T16:20:50.874Z,101284.50
2022-11-10T16:25:55.495Z,101283.53
2022-11-10T16:30:56.908Z,101308.88
2022-11-10T16:35:59.927Z,101319.69
2022-11-10T16:41:03.539Z,101323.53
2022-11-10T16:46:14.995Z,101338.34
2022-11-10T16:51:17.998Z,101335.44
2022-11-10T16:56:21.015Z,101341.09
2022-11-10T17:01:26.308Z,101354.06
2022-11-10T17:06:29.618Z,101363.69
2022-11-10T17:11:31.024Z,101368.41
2022-11-10T17:16:37.635Z,101371.22
2022-11-10T17:21:39.178Z,101372.28
2022-11-10T17:26:41.127Z,101372.53
2022-11-10T17:31:42.815Z,101363.09
2022-11-10T17:36:44.441Z,101373.41
2022-11-10T17:41:45.839Z,101366.28
2022-11-10T17:46:47.437Z,101368.38
2022-11-10T17:51:49.022Z,101357.75
2022-11-10T17:56:50.421Z,101357.25
2022-11-10T18:01:51.833Z,101353.75
2022-11-10T18:06:53.387Z,101369.78
2022-11-10T18:11:54.820Z,101370.34
2022-11-10T18:16:56.284Z,101369.97
2022-11-10T18:21:57.686Z,101377.09
2022-11-10T18:26:59.140Z,101380.59
2022-11-10T18:32:00.585Z,101384.25
2022-11-10T18:37:02.023Z,101384.94
2022-11-10T18:42:03.959Z,101387.97
2022-11-10T18:47:12.167Z,101394.34
2022-11-10T18:52:13.636Z,101391.34
2022-11-10T18:57:16.664Z,101400.22
2022-11-10T19:02:18.205Z,101406.50
2022-11-10T19:07:19.759Z,101410.75
2022-11-10T19:12:26.405Z,101423.31
2022-11-10T19:17:28.304Z,101428.09
2022-11-10T19:22:30.060Z,101447.38
2022-11-10T19:27:31.466Z,101442.78
2022-11-10T19:32:33.221Z,101448.72
2022-11-10T19:37:35.030Z,101452.19
2022-11-10T19:42:36.437Z,101451.25
2022-11-10T19:47:37.850Z,101448.72
2022-11-10T19:52:39.272Z,101457.94
2022-11-10T19:57:40.707Z,101469.47
2022-11-10T20:02:45.602Z,101473.47
2022-11-10T20:08:09.712Z,101478.38
2022-11-10T20:13:11.939Z,101479.56
2022-11-10T20:18:13.554Z,101475.56
2022-11-10T20:23:16.094Z,101484.88
2022-11-10T20:28:17.494Z,101487.41
2022-11-10T20:33:18.919Z,101484.69
2022-11-10T20:38:20.452Z,101484.53
2022-11-10T20:43:22.266Z,101476.59
2022-11-10T20:48:23.945Z,101477.00
2022-11-10T20:53:26.107Z,101480.97
2022-11-10T20:58:28.626Z,101484.81
2022-11-10T21:03:31.188Z,101485.84
2022-11-10T21:08:33.089Z,101483.06
2022-11-10T21:13:34.910Z,101484.97
2022-11-10T21:18:37.059Z,101495.94
2022-11-10T21:23:39.503Z,101505.94
2022-11-10T21:28:40.901Z,101490.84
2022-11-10T21:33:42.307Z,101497.59
2022-11-10T21:38:47.119Z,101487.84
2022-11-10T21:43:48.587Z,101497.41
2022-11-10T21:48:50.902Z,101504.69
2022-11-10T21:53:52.302Z,101501.13
2022-11-10T21:58:53.702Z,101488.84
2022-11-10T22:03:55.154Z,101483.63
2022-11-10T22:08:56.621Z,101485.53
2022-11-10T22:14:16.730Z,101491.09
2022-11-10T22:19:18.333Z,101496.66
2022-11-10T22:24:28.607Z,101500.13
2022-11-10T22:29:32.434Z,101506.53
2022-11-10T22:34:33.885Z,101519.16
2022-11-10T22:39:53.998Z,101520.13
2022-11-10T22:44:55.421Z,101525.03
2022-11-10T22:49:56.829Z,101525.28
2022-11-10T22:54:58.413Z,101529.16
2022-11-10T22:59:59.838Z,101536.00
2022-11-10T23:05:01.311Z,101548.09
2022-11-10T23:10:02.891Z,101561.94
2022-11-10T23:15:04.456Z,101572.56
2022-11-10T23:20:06.417Z,101580.13
2022-11-10T23:25:08.098Z,101576.78
2022-11-10T23:30:10.083Z,101586.47
2022-11-10T23:35:11.525Z,101592.88
2022-11-10T23:40:13.314Z,101579.03
2022-11-10T23:45:14.723Z,101587.47
2022-11-10T23:50:16.319Z,101579.88
2022-11-10T23:55:17.980Z,101582.56
